createdAt,value
2022-11-08T00:02:04.489Z,93.10
2022-11-08T00:04:39.098Z,93.30
2022-11-08T00:07:31.054Z,93.20
2022-11-08T00:10:20.798Z,93.10
2022-11-08T00:13:11.168Z,93.10
2022-11-08T00:15:39.260Z,93.10
2022-11-08T00:18:24.144Z,93.00
2022-11-08T00:20:53.315Z,93.00
2022-11-08T00:23:24.466Z,93.00
2022-11-08T00:25:57.648Z,93.10
2022-11-08T00:28:27.482Z,93.20
2022-11-08T00:30:54.858Z,93.20
2022-11-08T00:33:24.789Z,93.20
2022-11-08T00:36:00.839Z,93.20
2022-11-08T00:38:31.437Z,93.10
2022-11-08T00:41:11.933Z,93.20
2022-11-08T00:43:42.518Z,93.20
2022-11-08T00:46:10.618Z,93.10
2022-11-08T00:48:38.624Z,93.20
2022-11-08T00:51:14.565Z,93.30
2022-11-08T00:53:46.441Z,93.30
2022-11-08T00:56:16.546Z,93.30
2022-11-08T00:58:52.520Z,93.30
2022-11-08T01:01:28.178Z,93.30
2022-11-08T01:03:56.807Z,93.20
2022-11-08T01:06:26.028Z,93.40
2022-11-08T01:08:56.163Z,93.20
2022-11-08T01:11:32.747Z,93.30
2022-11-08T01:14:02.426Z,93.30
2022-11-08T01:16:33.677Z,93.20
2022-11-08T01:19:08.137Z,93.20
2022-11-08T01:21:35.575Z,93.10
2022-11-08T01:24:10.202Z,93.10
2022-11-08T01:26:48.547Z,93.00
2022-11-08T01:29:19.714Z,93.00
2022-11-08T01:31:54.736Z,93.00
2022-11-08T01:34:22.172Z,93.10
2022-11-08T01:36:57.618Z,93.00
2022-11-08T01:39:40.033Z,93.00
2022-11-08T01:42:17.658Z,93.00
2022-11-08T01:44:58.019Z,93.00
2022-11-08T01:47:31.939Z,93.20
2022-11-08T01:50:29.107Z,93.40
2022-11-08T01:52:56.520Z,93.60
2022-11-08T01:55:37.315Z,93.70
2022-11-08T01:58:19.857Z,93.80
2022-11-08T02:00:47.968Z,93.90
2022-11-08T02:03:27.289Z,93.90
2022-11-08T02:05:59.430Z,94.10
2022-11-08T02:08:44.572Z,94.30
2022-11-08T02:11:14.809Z,94.50
2022-11-08T02:13:42.733Z,94.60
2022-11-08T02:16:18.044Z,94.70
2022-11-08T02:18:52.566Z,94.70
2022-11-08T02:21:36.652Z,94.80
2022-11-08T02:24:13.265Z,94.80
2022-11-08T02:26:42.215Z,95.00
2022-11-08T02:29:34.883Z,95.10
2022-11-08T02:32:05.250Z,95.20
2022-11-08T02:34:45.383Z,95.20
2022-11-08T02:37:20.766Z,95.20
2022-11-08T02:39:55.714Z,95.10
2022-11-08T02:42:23.882Z,95.00
2022-11-08T02:44:52.098Z,95.10
2022-11-08T02:47:24.065Z,95.00
2022-11-08T02:49:51.311Z,94.90
2022-11-08T02:52:29.990Z,94.90
2022-11-08T02:55:02.843Z,94.90
2022-11-08T02:57:42.125Z,94.70
2022-11-08T03:00:13.397Z,94.60
2022-11-08T03:02:51.913Z,94.60
2022-11-08T03:05:26.135Z,94.50
2022-11-08T03:07:54.667Z,94.50
2022-11-08T03:10:25.561Z,94.40
2022-11-08T03:12:57.959Z,94.30
2022-11-08T03:15:30.130Z,94.40
2022-11-08T03:18:01.355Z,94.50
2022-11-08T03:20:36.628Z,94.30
2022-11-08T03:23:16.484Z,94.20
2022-11-08T03:25:51.258Z,94.30
2022-11-08T03:28:22.652Z,94.10
2022-11-08T03:30:57.105Z,94.20
2022-11-08T03:33:33.902Z,94.10
2022-11-08T03:36:03.704Z,94.10
2022-11-08T03:38:36.502Z,94.10
2022-11-08T03:41:09.949Z,94.00
2022-11-08T03:43:51.210Z,93.90
2022-11-08T03:46:38.390Z,93.90
2022-11-08T03:49:07.359Z,93.70
2022-11-08T03:51:40.291Z,93.70
2022-11-08T03:54:08.392Z,93.80
2022-11-08T03:56:35.603Z,93.80
2022-11-08T03:59:03.494Z,93.80
2022-11-08T04:01:37.903Z,93.90
2022-11-08T04:04:06.329Z,93.80
2022-11-08T04:07:54.454Z,93.80
2022-11-08T04:09:40.396Z,93.90
2022-11-08T04:12:28.104Z,93.80
2022-11-08T04:15:16.303Z,93.80
2022-11-08T04:18:11.239Z,94.00
2022-11-08T04:21:04.318Z,94.10
2022-11-08T04:23:44.583Z,93.90
2022-11-08T04:26:12.939Z,93.90
2022-11-08T04:29:00.701Z,94.00
2022-11-08T04:31:33.786Z,94.50
2022-11-08T04:34:24.596Z,94.50
2022-11-08T04:36:56.850Z,94.30
2022-11-08T04:39:31.795Z,94.30
2022-11-08T04:42:02.780Z,94.40
2022-11-08T04:44:30.077Z,94.50
2022-11-08T04:46:59.051Z,94.90
2022-11-08T04:49:27.280Z,95.20
2022-11-08T04:51:57.678Z,95.30
2022-11-08T04:54:34.676Z,95.40
2022-11-08T04:57:02.521Z,95.40
2022-11-08T04:59:32.077Z,95.50
2022-11-08T05:02:06.668Z,95.70
2022-11-08T05:04:34.194Z,95.60
2022-11-08T05:07:03.616Z,95.40
2022-11-08T05:09:36.277Z,95.40
2022-11-08T05:12:03.874Z,95.50
2022-11-08T05:14:36.957Z,95.60
2022-11-08T05:17:15.132Z,95.70
2022-11-08T05:20:04.256Z,96.00
2022-11-08T05:22:50.335Z,96.10
2022-11-08T05:25:17.643Z,96.20
2022-11-08T05:27:44.913Z,96.40
2022-11-08T05:30:12.791Z,96.80
2022-11-08T05:32:49.345Z,96.80
2022-11-08T05:35:24.567Z,96.70
2022-11-08T05:37:54.631Z,96.70
2022-11-08T05:40:23.488Z,96.50
2022-11-08T05:43:20.439Z,96.50
2022-11-08T05:46:13.337Z,96.30
2022-11-08T05:51:42.826Z,96.30
2022-11-08T05:54:25.666Z,96.50
2022-11-08T05:56:53.450Z,96.20
2022-11-08T05:59:26.953Z,96.20
2022-11-08T06:01:58.026Z,96.40
2022-11-08T06:04:31.125Z,96.40
2022-11-08T06:07:15.896Z,96.40
2022-11-08T06:09:58.030Z,96.40
2022-11-08T06:12:29.932Z,96.60
2022-11-08T06:15:55.023Z,96.70
2022-11-08T06:19:38.714Z,96.60
2022-11-08T06:22:06.221Z,96.50
2022-11-08T06:24:42.280Z,96.40
2022-11-08T06:27:14.725Z,96.30
2022-11-08T06:29:59.835Z,96.30
2022-11-08T06:32:37.349Z,96.10
2022-11-08T06:35:08.254Z,96.20
2022-11-08T06:37:37.630Z,96.30
2022-11-08T06:40:19.101Z,96.40
2022-11-08T06:43:21.122Z,96.30
2022-11-08T06:46:00.603Z,95.80
2022-11-08T06:48:48.765Z,95.40
2022-11-08T06:51:56.819Z,95.20
2022-11-08T06:55:18.695Z,94.80
2022-11-08T06:57:47.217Z,94.90
2022-11-08T07:00:17.654Z,94.60
2022-11-08T07:03:11.517Z,94.60
2022-11-08T07:12:52.487Z,94.50
2022-11-08T07:16:07.222Z,94.70
2022-11-08T07:18:58.715Z,94.80
2022-11-08T07:21:57.569Z,94.60
2022-11-08T07:24:31.379Z,93.70
2022-11-08T07:27:09.762Z,93.40
2022-11-08T07:33:01.708Z,92.70
2022-11-08T07:35:37.717Z,92.40
2022-11-08T07:39:06.920Z,92.10
2022-11-08T07:41:40.941Z,92.00
2022-11-08T07:44:32.000Z,91.70
2022-11-08T07:48:18.011Z,91.40
2022-11-08T07:51:08.102Z,91.20
2022-11-08T07:54:19.006Z,91.00
2022-11-08T08:03:26.076Z,89.90
2022-11-08T08:06:15.201Z,89.20
2022-11-08T08:10:37.730Z,88.00
2022-11-08T08:12:54.345Z,87.20
2022-11-08T08:15:42.258Z,87.10
2022-11-08T08:18:29.391Z,86.60
2022-11-08T08:21:00.855Z,86.30
2022-11-08T08:30:28.268Z,85.80
2022-11-08T08:36:29.529Z,85.80
2022-11-08T08:38:56.720Z,85.20
2022-11-08T08:41:29.044Z,84.70
2022-11-08T08:43:56.358Z,84.50
2022-11-08T08:46:23.444Z,84.70
2022-11-08T08:48:51.355Z,84.90
2022-11-08T08:51:18.739Z,85.30
2022-11-08T08:53:46.349Z,85.30
2022-11-08T08:56:13.516Z,85.50
2022-11-08T08:58:41.267Z,85.70
2022-11-08T09:03:59.450Z,85.70
2022-11-08T09:06:26.714Z,85.60
2022-11-08T09:08:54.018Z,85.60
2022-11-08T09:11:22.464Z,85.50
2022-11-08T09:13:49.966Z,85.50
2022-11-08T09:16:17.322Z,85.40
2022-11-08T09:18:44.928Z,85.20
2022-11-08T09:21:12.318Z,85.30
2022-11-08T09:23:42.488Z,85.40
2022-11-08T09:26:14.224Z,85.30
2022-11-08T09:28:41.385Z,85.30
2022-11-08T09:31:12.630Z,85.50
2022-11-08T09:33:43.592Z,85.50
2022-11-08T09:36:13.919Z,85.20
2022-11-08T09:38:42.429Z,84.80
2022-11-08T09:41:32.695Z,84.60
2022-11-08T09:44:21.405Z,83.90
2022-11-08T09:46:53.623Z,82.90
2022-11-08T09:49:28.663Z,82.70
2022-11-08T09:51:56.555Z,82.50
2022-11-08T09:54:40.288Z,82.30
2022-11-08T09:57:16.295Z,82.60
2022-11-08T09:59:49.402Z,82.90
2022-11-08T10:02:20.217Z,83.10
2022-11-08T10:05:21.229Z,83.30
2022-11-08T10:08:24.016Z,83.40
2022-11-08T10:10:58.453Z,83.80
2022-11-08T10:13:37.615Z,83.70
2022-11-08T10:16:22.926Z,83.90
2022-11-08T10:19:03.942Z,84.20
2022-11-08T10:21:59.580Z,84.40
2022-11-08T10:24:36.963Z,84.50
2022-11-08T10:27:11.284Z,84.60
2022-11-08T10:29:44.467Z,84.50
2022-11-08T10:32:12.110Z,84.70
2022-11-08T10:34:54.760Z,84.60
2022-11-08T10:37:24.339Z,84.60
2022-11-08T10:40:14.279Z,84.40
2022-11-08T10:42:53.156Z,83.90
2022-11-08T10:45:22.337Z,83.80
2022-11-08T10:47:50.108Z,83.70
2022-11-08T10:50:27.058Z,83.80
2022-11-08T10:53:00.394Z,84.20
2022-11-08T10:55:37.078Z,84.50
2022-11-08T10:58:05.220Z,84.30
2022-11-08T11:00:33.752Z,84.50
2022-11-08T11:03:12.164Z,84.10
2022-11-08T11:05:44.414Z,83.60
2022-11-08T11:08:19.886Z,83.20
2022-11-08T11:10:50.387Z,83.30
2022-11-08T11:13:28.756Z,83.30
2022-11-08T11:15:58.965Z,83.30
2022-11-08T11:18:31.024Z,83.80
2022-11-08T11:21:02.438Z,84.30
2022-11-08T11:23:34.719Z,84.70
2022-11-08T11:26:05.511Z,85.20
2022-11-08T11:28:32.877Z,85.20
2022-11-08T11:31:03.232Z,85.10
2022-11-08T11:33:31.594Z,85.00
2022-11-08T11:36:08.051Z,84.80
2022-11-08T11:38:48.830Z,84.60
2022-11-08T11:41:43.873Z,84.50
2022-11-08T11:44:30.929Z,84.30
2022-11-08T11:47:14.193Z,84.20
2022-11-08T11:49:43.864Z,84.00
2022-11-08T11:52:21.216Z,83.40
2022-11-08T11:54:50.295Z,82.80
2022-11-08T11:57:20.505Z,82.30
2022-11-08T12:00:04.766Z,82.50
2022-11-08T12:03:06.346Z,82.40
2022-11-08T12:05:51.028Z,82.20
2022-11-08T12:08:42.098Z,82.20
2022-11-08T12:11:31.272Z,82.30
2022-11-08T12:14:22.840Z,82.50
2022-11-08T12:16:55.862Z,82.80
2022-11-08T12:19:58.578Z,83.20
2022-11-08T12:22:59.740Z,83.80
2022-11-08T12:25:32.214Z,84.20
2022-11-08T12:28:23.737Z,84.70
2022-11-08T12:31:09.053Z,84.90
2022-11-08T12:34:00.964Z,85.20
2022-11-08T12:36:48.072Z,85.30
2022-11-08T12:39:36.380Z,85.30
2022-11-08T12:42:18.851Z,85.40
2022-11-08T12:45:00.284Z,85.70
2022-11-08T12:47:45.951Z,86.00
2022-11-08T12:50:25.248Z,86.40
2022-11-08T12:53:11.001Z,86.70
2022-11-08T12:55:42.532Z,87.10
2022-11-08T12:58:30.347Z,87.30
2022-11-08T13:01:24.171Z,87.70
2022-11-08T13:04:25.017Z,87.90
2022-11-08T13:07:15.651Z,88.10
2022-11-08T13:10:20.016Z,88.30
2022-11-08T13:13:28.776Z,88.40
2022-11-08T13:16:10.341Z,88.40
2022-11-08T13:18:48.953Z,88.50
2022-11-08T13:21:28.498Z,88.50
2022-11-08T13:27:45.127Z,88.50
2022-11-08T13:30:12.116Z,88.60
2022-11-08T13:33:02.600Z,88.90
2022-11-08T13:36:07.224Z,89.00
2022-11-08T13:38:58.117Z,89.10
2022-11-08T13:41:26.530Z,89.40
2022-11-08T13:43:58.491Z,89.50
2022-11-08T13:46:31.035Z,89.60
2022-11-08T13:49:01.295Z,89.80
2022-11-08T13:51:35.957Z,90.00
2022-11-08T13:54:04.441Z,90.10
2022-11-08T13:56:55.147Z,90.40
2022-11-08T13:59:31.328Z,90.30
2022-11-08T14:01:58.983Z,90.50
2022-11-08T14:04:28.063Z,90.70
2022-11-08T14:07:26.444Z,90.80
2022-11-08T14:10:11.827Z,90.90
2022-11-08T14:12:47.265Z,91.00
2022-11-08T14:15:25.146Z,91.20
2022-11-08T14:18:28.412Z,91.10
2022-11-08T14:20:56.242Z,91.20
2022-11-08T14:23:31.030Z,91.30
2022-11-08T14:26:11.218Z,91.30
2022-11-08T14:28:41.569Z,91.40
2022-11-08T14:31:23.828Z,91.50
2022-11-08T14:33:51.951Z,91.50
2022-11-08T14:36:20.169Z,91.50
2022-11-08T14:38:49.785Z,91.70
2022-11-08T14:41:27.180Z,91.70
2022-11-08T14:43:57.924Z,91.70
2022-11-08T14:46:34.754Z,92.00
2022-11-08T14:49:34.758Z,92.10
2022-11-08T14:52:17.660Z,92.10
2022-11-08T14:54:49.431Z,92.10
2022-11-08T14:57:41.217Z,92.30
2022-11-08T15:00:20.839Z,92.40
2022-11-08T15:03:04.757Z,92.60
2022-11-08T15:05:37.830Z,92.70
2022-11-08T15:08:26.001Z,92.90
2022-11-08T15:11:02.332Z,92.90
2022-11-08T15:13:34.402Z,93.20
2022-11-08T15:16:06.345Z,93.20
2022-11-08T15:18:38.105Z,93.40
2022-11-08T15:21:28.486Z,93.30
2022-11-08T15:24:12.912Z,93.40
2022-11-08T15:26:40.548Z,93.40
2022-11-08T15:29:23.140Z,93.50
2022-11-08T15:32:01.474Z,93.60
2022-11-08T15:34:29.256Z,93.60
2022-11-08T15:36:56.848Z,93.70
2022-11-08T15:39:39.617Z,93.60
2022-11-08T15:42:17.820Z,93.70
2022-11-08T15:45:16.727Z,93.70
2022-11-08T15:47:46.393Z,93.60
2022-11-08T15:50:23.224Z,93.80
2022-11-08T15:52:53.286Z,94.00
2022-11-08T15:55:42.122Z,94.00
2022-11-08T15:58:17.143Z,94.20
2022-11-08T16:00:48.464Z,94.30
2022-11-08T16:03:15.803Z,94.60
2022-11-08T16:05:43.022Z,94.50
2022-11-08T16:08:10.259Z,94.50
2022-11-08T16:10:41.108Z,94.60
2022-11-08T16:13:31.693Z,94.50
2022-11-08T16:16:00.397Z,94.60
2022-11-08T16:18:27.965Z,94.60
2022-11-08T16:20:58.063Z,94.50
2022-11-08T16:23:25.164Z,94.40
2022-11-08T16:25:55.017Z,94.60
2022-11-08T16:28:38.212Z,94.60
2022-11-08T16:31:08.916Z,94.50
2022-11-08T16:33:38.911Z,94.60
2022-11-08T16:36:16.002Z,94.60
2022-11-08T16:38:45.139Z,94.60
2022-11-08T16:41:13.937Z,94.60
2022-11-08T16:43:41.620Z,94.50
2022-11-08T16:46:15.068Z,94.70
2022-11-08T16:49:12.887Z,94.80
2022-11-08T16:51:42.485Z,94.90
2022-11-08T16:54:19.984Z,95.10
2022-11-08T16:57:13.690Z,95.20
2022-11-08T16:59:43.126Z,95.40
2022-11-08T17:02:21.715Z,95.40
2022-11-08T17:04:49.455Z,95.40
2022-11-08T17:07:17.488Z,95.50
2022-11-08T17:09:45.022Z,95.40
2022-11-08T17:12:12.196Z,95.40
2022-11-08T17:14:42.399Z,95.40
2022-11-08T17:17:18.564Z,95.60
2022-11-08T17:19:46.240Z,95.30
2022-11-08T17:22:24.584Z,95.30
2022-11-08T17:24:51.890Z,95.40
2022-11-08T17:27:19.929Z,95.30
2022-11-08T17:29:47.483Z,95.10
2022-11-08T17:32:17.983Z,94.90
2022-11-08T17:34:52.276Z,94.90
2022-11-08T17:37:20.235Z,94.80
2022-11-08T17:39:47.559Z,94.60
2022-11-08T17:42:15.271Z,94.60
2022-11-08T17:44:43.626Z,94.60
2022-11-08T17:47:11.143Z,94.50
2022-11-08T17:49:42.795Z,94.50
2022-11-08T17:52:12.300Z,94.50
2022-11-08T17:54:39.378Z,94.30
2022-11-08T17:57:06.825Z,94.30
2022-11-08T17:59:34.297Z,94.20
2022-11-08T18:02:02.111Z,94.30
2022-11-08T18:04:29.627Z,93.90
2022-11-08T18:06:59.336Z,93.80
2022-11-08T18:09:27.435Z,93.90
2022-11-08T18:11:56.238Z,93.80
2022-11-08T18:17:14.411Z,93.90
2022-11-08T18:19:45.619Z,93.90
2022-11-08T18:22:14.182Z,93.70
2022-11-08T18:24:44.742Z,93.60
2022-11-08T18:27:15.005Z,93.50
2022-11-08T18:29:42.021Z,93.50
2022-11-08T18:32:09.098Z,93.30
2022-11-08T18:34:36.618Z,93.30
2022-11-08T18:37:03.878Z,93.20
2022-11-08T18:39:30.884Z,93.20
2022-11-08T18:42:00.583Z,93.30
2022-11-08T18:44:27.940Z,93.30
2022-11-08T18:46:55.287Z,93.40
2022-11-08T18:49:22.383Z,93.40
2022-11-08T18:51:52.207Z,93.40
2022-11-08T18:54:23.815Z,93.30
2022-11-08T18:56:50.983Z,93.30
2022-11-08T18:59:18.212Z,93.20
2022-11-08T19:01:45.631Z,93.40
2022-11-08T19:04:12.624Z,93.30
2022-11-08T19:06:40.346Z,93.30
2022-11-08T19:09:10.612Z,93.40
2022-11-08T19:11:37.787Z,93.20
2022-11-08T19:14:05.115Z,93.30
2022-11-08T19:16:32.103Z,93.40
2022-11-08T19:18:59.681Z,93.30
2022-11-08T19:21:27.947Z,93.30
2022-11-08T19:23:59.401Z,93.40
2022-11-08T19:26:27.781Z,93.30
2022-11-08T19:28:57.293Z,93.30
2022-11-08T19:31:25.866Z,93.30
2022-11-08T19:33:54.148Z,93.40
2022-11-08T19:36:26.574Z,93.40
2022-11-08T19:38:55.950Z,93.40
2022-11-08T19:41:25.405Z,93.40
2022-11-08T19:43:52.995Z,93.40
2022-11-08T19:46:26.270Z,93.50
2022-11-08T19:48:53.712Z,93.50
2022-11-08T19:51:23.285Z,93.50
2022-11-08T19:53:54.046Z,93.50
2022-11-08T19:56:29.178Z,93.50
2022-11-08T19:59:05.476Z,93.40
2022-11-08T20:01:40.871Z,93.30
2022-11-08T20:04:11.261Z,93.30
2022-11-08T20:06:47.780Z,93.30
2022-11-08T20:09:15.132Z,93.40
2022-11-08T20:11:43.209Z,93.30
2022-11-08T20:14:12.617Z,93.30
2022-11-08T20:16:42.948Z,93.30
2022-11-08T20:19:16.685Z,93.30
2022-11-08T20:21:46.402Z,93.40
2022-11-08T20:24:14.713Z,93.40
2022-11-08T20:26:43.762Z,93.40
2022-11-08T20:29:11.634Z,93.50
2022-11-08T20:31:42.284Z,93.50
2022-11-08T20:34:11.896Z,93.60
2022-11-08T20:36:40.972Z,93.70
2022-11-08T20:39:08.362Z,93.80
2022-11-08T20:41:37.857Z,93.70
2022-11-08T20:44:06.690Z,93.70
2022-11-08T20:46:34.845Z,93.80
2022-11-08T20:49:02.768Z,93.70
2022-11-08T20:51:30.916Z,93.70
2022-11-08T20:53:59.724Z,93.60
2022-11-08T20:56:27.869Z,93.60
2022-11-08T20:58:55.052Z,93.60
2022-11-08T21:01:30.930Z,93.50
2022-11-08T21:03:58.988Z,93.50
2022-11-08T21:06:28.471Z,93.40
2022-11-08T21:08:59.834Z,93.40
2022-11-08T21:11:32.656Z,93.30
2022-11-08T21:14:00.038Z,93.40
2022-11-08T21:16:30.405Z,93.30
2022-11-08T21:18:58.654Z,93.30
2022-11-08T21:21:29.762Z,93.50
2022-11-08T21:23:57.137Z,93.20
2022-11-08T21:26:24.467Z,93.20
2022-11-08T21:28:52.495Z,93.20
2022-11-08T21:31:19.742Z,93.30
2022-11-08T21:33:46.892Z,93.30
2022-11-08T21:36:14.097Z,93.50
2022-11-08T21:38:41.643Z,93.40
2022-11-08T21:41:10.227Z,93.40
2022-11-08T21:43:44.679Z,93.50
2022-11-08T21:46:18.378Z,93.50
2022-11-08T21:48:46.139Z,93.70
2022-11-08T21:51:13.785Z,93.80
2022-11-08T21:53:52.549Z,94.00
2022-11-08T21:56:21.913Z,94.00
2022-11-08T21:58:49.203Z,94.10
2022-11-08T22:01:19.886Z,93.90
2022-11-08T22:03:47.670Z,94.00
2022-11-08T22:06:14.795Z,93.90
2022-11-08T22:08:41.873Z,94.00
2022-11-08T22:11:08.942Z,93.90
2022-11-08T22:13:36.351Z,94.00
2022-11-08T22:16:03.337Z,94.10
2022-11-08T22:18:50.858Z,94.00
2022-11-08T22:21:38.674Z,94.10
2022-11-08T22:24:18.460Z,93.90
2022-11-08T22:26:45.997Z,93.80
2022-11-08T22:29:16.847Z,93.80
2022-11-08T22:31:44.455Z,94.00
2022-11-08T22:34:12.230Z,94.00
2022-11-08T22:36:44.788Z,93.80
2022-11-08T22:39:15.305Z,93.90
2022-11-08T22:41:43.706Z,93.60
2022-11-08T22:44:12.310Z,93.60
2022-11-08T22:46:41.417Z,93.50
2022-11-08T22:49:08.855Z,93.60
2022-11-08T22:51:36.185Z,93.50
2022-11-08T22:54:06.099Z,93.40
2022-11-08T22:56:33.541Z,93.40
2022-11-08T22:59:00.705Z,93.40
2022-11-08T23:01:29.304Z,93.40
2022-11-08T23:03:56.309Z,93.40
2022-11-08T23:06:23.346Z,93.50
2022-11-08T23:08:50.575Z,93.40
2022-11-08T23:11:36.054Z,93.50
2022-11-08T23:14:23.269Z,93.40
2022-11-08T23:16:50.384Z,93.50
2022-11-08T23:19:39.655Z,93.30
2022-11-08T23:22:29.090Z,93.40
2022-11-08T23:24:56.567Z,93.30
2022-11-08T23:27:42.890Z,93.20
2022-11-08T23:30:32.861Z,93.30
2022-11-08T23:32:59.971Z,93.30
2022-11-08T23:35:27.119Z,93.30
2022-11-08T23:37:55.217Z,93.40
2022-11-08T23:40:40.622Z,93.40
2022-11-08T23:43:34.928Z,93.30
2022-11-08T23:46:10.252Z,93.30
2022-11-08T23:48:41.606Z,93.30
2022-11-08T23:51:08.935Z,93.30
2022-11-08T23:53:37.252Z,93.30
2022-11-08T23:56:05.533Z,93.30
2022-11-08T23:58:33.401Z,93.20
